Main page
METAR-TAF:

METAR-TAF

Airports :

Lechfeld, Germany

Lechfeld Air Base

latitude: 48-11N, longitude: 010-52E, elevation: 555 m

Current weather observation

The report was made 32 minutes ago, at 08:20 UTC
Wind 9 kt from the West/Southwest
Temperature 16°C
Humidity 77%
Pressure 1013 hPa
Visibility 10 km or more
Few clouds at a height of 1500 ft
Broken clouds at a height of 4500 ft

METAR: ETSL 270820Z 24009KT 9999 FEW015 BKN045 16/12 Q1013 BLU BLU TEMPO WHT

Time: 10:52 (08:52 UTC)

Forecast

The report was made 1 hour and 27 minutes ago, at 07:25 UTC
Forecast valid from 27 at 08 UTC to 27 at 17 UTC
Wind 8 kt from the South/Southwest
Visibility 10 km or more
Few clouds at a height of 2000 ft
Broken clouds at a height of 4000 ft
Temporary
from 27 at 08 UTC to 27 at 17 UTC
Wind 12 kt from the Southwest
Visibility: 5000 m
Broken clouds at a height of 2000 ft
Overcast at a height of 4000 ft
light rain

TAF: ETSL 270725Z 2708/2717 21008KT 9999 NSW FEW020 BKN040 TEMPO 2708/2717 22012KT 5000 -RA BKN020 OVC040 BY ETGL

Weather observations and forecasts of more than 4000 airports (METAR and TAF reports).

The available stations are represented by yellow and red dots on the map.

Hover mouse over dot to see the name of the station.

Then click to see weather observations and forecasts.

To change the map : click on the green buttons with a black cross to zoom in, on the green button with a dash to zoom out, or on the green arrows for adjacent maps.


METAR-TAF: